Laukaa, Finland
Kieli:  Suomi
CurCond
Päivitetty30/11/2022 16:28 
 

Lähistön Lentoasemien Säätiloja:

 

EFJY - Jyvaskyla (mil/C,) Finland
Etäisyys Sääasemalta: PKo 21km
Päivitetty: 30/11/2022 15:50
Heikkoa Lumisadetta, Enimmäkseen pilvistä
Heikkoa Lumisadetta, Enimmäkseen pilvistä
 Tuulen suunta IKa
Tuuli: IKa 4 km/h
Lämpötila: -2°C
Kastepiste: -3°C
Ilmankosteus: 93%
Ilmanpaine: 1036 hPa
Yhteenveto: Heikkoa Lumisadetta
Pilvisyys: Enimmäkseen pilvistä
Näkyvyys: 6 km
Pilvisyystiedot: Joitain Pilviä 152 m
Enimmäkseen pilvistä 244 m
2022/11/30 13:50 EFJY 301350Z 11002KT 6000 -SN FEW005 BKN008 M02/M03 Q1036
EFHA - Halli (fin-Afb), Finland
Etäisyys Sääasemalta: Lo 56km
Päivitetty: 30/11/2022 16:20
Pilvistä
Pilvistä
 Tuulen suunta I
Tuuli: I 6 km/h
Lämpötila: -2°C
Kastepiste: -2°C
Ilmankosteus: 100%
Ilmanpaine: 1035 hPa
Pilvisyys: Pilvistä
Näkyvyys: 10 km
Pilvisyystiedot: Pilvistä 122 m
2022/11/30 14:20 EFHA 301420Z AUTO 10003KT 9999 OVC004 M02/M02 Q1035
EFMI - Mikkeli, Finland
Etäisyys Sääasemalta: IKa 105km
Päivitetty: 30/11/2022 16:20
Heikkoa Lumisadetta, Pilvistä
Heikkoa Lumisadetta, Pilvistä
 Tuulen suunta IKa
Tuuli: IKa 4 km/h
Lämpötila: -2°C
Kastepiste: -3°C
Ilmankosteus: 93%
Ilmanpaine: 1036 hPa
Yhteenveto: Heikkoa Lumisadetta
Pilvisyys: Pilvistä
Näkyvyys: 3 km
Pilvisyystiedot: Pilvistä 640 m
2022/11/30 14:20 EFMI 301420Z AUTO 11002KT 2800 -SN OVC021 M02/M03 Q1036
 
EFTP - Tampere/Pirkkala, Finland
Etäisyys Sääasemalta: Lo 135km
Päivitetty: 30/11/2022 16:20
Heikkoa Lumisadetta, Kuurottaisia sateita, Pilvistä
Heikkoa Lumisadetta, Kuurottaisia sateita, Pilvistä
 Tuulen suunta I
Tuuli: I 4 km/h
Lämpötila: -1°C
Kastepiste: -2°C
Ilmankosteus: 93%
Ilmanpaine: 1035 hPa
Yhteenveto: Heikkoa Lumisadetta, Kuurottaisia sateita
Pilvisyys: Pilvistä
Näkyvyys: 9 km
Pilvisyystiedot: Pilvistä 122 m
2022/11/30 14:20 EFTP 301420Z AUTO 10002KT 9000 -SHSN OVC004 M01/M02 Q1035
EFKU - Kuopio (mil/Civ), Finland
Etäisyys Sääasemalta: Ko 146km
Päivitetty: 30/11/2022 16:20
Heikkoa Lumisadetta, Pilvistä
Heikkoa Lumisadetta, Pilvistä
 Tuulen suunta IKa
Tuuli: IKa 9 km/h
Lämpötila: -2°C
Tuulen purevuus: -6°C
Kastepiste: -3°C
Ilmankosteus: 93%
Ilmanpaine: 1036 hPa
Yhteenveto: Heikkoa Lumisadetta
Pilvisyys: Pilvistä
Näkyvyys: 4 km
Pilvisyystiedot: Joitain Pilviä 91 m
Pilvistä 792 m
2022/11/30 14:20 EFKU 301420Z AUTO 12005KT 4000 -SN FEW003 OVC026 M02/M03 Q1036
EFSI - Seinajoki-Ilmajo, Finland
Etäisyys Sääasemalta: LLu 149km
Päivitetty: 30/11/2022 16:20
Heikkoa Lumisadetta, Joitain Pilviä
Heikkoa Lumisadetta, Joitain Pilviä
 Tuulen suunta IKa
Tuuli: IKa 6 km/h
Lämpötila: -3°C
Kastepiste: -3°C
Ilmankosteus: 100%
Ilmanpaine: 1035 hPa
Yhteenveto: Heikkoa Lumisadetta
Pilvisyys: Joitain Pilviä
Näkyvyys: 9 km
Pilvisyystiedot: Joitain Pilviä 884 m
2022/11/30 14:20 EFSI 301420Z AUTO 11003KT 9000 -SN FEW029 M03/M03 Q1035